Time;durP1;ratioP1;P1;durP2;ratioP2;P2;SDS_P1;SDS_P2;PMS_P1;PMS_P2;Temp;Humidity;BMP_temperature;BMP_pressure;BME280_temperature;BME280_humidity;BME280_pressure;Samples;Min_cycle;Max_cycle;Signal;HPM_P1;HPM_P2
2022/06/14 00:01:52;;;;;;;15.38;3.75;;;11.00;94.30;;;;;;6158431;23;20063;-76
2022/06/14 00:09:07;;;;;;;13.48;3.10;;;10.80;93.90;;;;;;6215754;23;20019;-77
2022/06/14 00:12:19;;;;;;;19.92;3.45;;;10.80;93.70;;;;;;6225032;23;20027;-77
2022/06/14 00:15:17;;;;;;;13.60;2.63;;;10.80;94.60;;;;;;6191030;23;20016;-78
2022/06/14 00:18:19;;;;;;;;;;;;;;;;;;;;;
2022/06/14 00:21:34;;;;;;;10.55;3.00;;;10.70;93.80;;;;;;6219535;23;20082;-77
2022/06/14 00:24:49;;;;;;;;;;;;;;;;;;;;;
2022/06/14 00:27:37;;;;;;;;;;;;;;;;;;;;;
2022/06/14 00:30:34;;;;;;;13.30;2.92;;;10.60;93.80;;;;;;6154289;23;20025;-77
2022/06/14 00:33:51;;;;;;;11.15;2.70;;;10.60;93.90;;;;;;6125016;23;20009;-77
2022/06/14 00:37:23;;;;;;;9.80;3.03;;;10.50;93.90;;;;;;6162288;23;20036;-77
2022/06/14 00:40:24;;;;;;;13.30;2.80;;;10.50;94.40;;;;;;6162328;23;20072;-77
2022/06/14 00:43:51;;;;;;;12.52;3.13;;;10.50;94.30;;;;;;6148213;23;20088;-77
2022/06/14 00:47:19;;;;;;;19.13;3.15;;;10.40;94.40;;;;;;6074156;23;20083;-77
2022/06/14 00:50:25;;;;;;;14.10;2.83;;;10.40;94.40;;;;;;6069777;23;20025;-77
2022/06/14 00:53:46;;;;;;;;;;;;;;;;;;;;;
2022/06/14 00:56:38;;;;;;;13.77;3.13;;;10.30;94.80;;;;;;6122070;23;20081;-77
2022/06/14 01:00:09;;;;;;;16.08;3.53;;;10.30;94.70;;;;;;6120094;23;20294;-77
2022/06/14 01:03:04;;;;;;;15.57;3.40;;;10.20;94.90;;;;;;6089716;23;20022;-77
2022/06/14 01:06:16;;;;;;;10.50;3.30;;;10.20;94.70;;;;;;6152586;23;20025;-76
2022/06/14 01:09:19;;;;;;;13.38;2.85;;;10.10;94.70;;;;;;6090775;23;20020;-76
2022/06/14 01:12:23;;;;;;;17.25;4.03;;;10.10;94.40;;;;;;6126650;23;20022;-76
2022/06/14 01:15:34;;;;;;;13.37;2.90;;;10.30;94.80;;;;;;6102826;23;20013;-76
2022/06/14 01:18:16;;;;;;;12.77;3.40;;;10.20;95.00;;;;;;6128371;23;20017;-77
2022/06/14 01:20:56;;;;;;;13.50;3.38;;;10.00;94.90;;;;;;6102084;23;20017;-77
2022/06/14 01:23:32;;;;;;;14.70;3.97;;;10.10;94.90;;;;;;6080391;23;20023;-77
2022/06/14 01:26:15;;;;;;;14.82;3.45;;;10.20;95.40;;;;;;6081436;23;20017;-77
2022/06/14 01:29:11;;;;;;;12.48;3.30;;;10.10;95.50;;;;;;6208734;23;20031;-76
2022/06/14 01:32:05;;;;;;;15.32;3.30;;;10.00;95.20;;;;;;6222535;23;20019;-76
2022/06/14 01:35:00;;;;;;;11.40;3.65;;;10.00;95.10;;;;;;6218558;23;20024;-77
2022/06/14 01:37:45;;;;;;;16.83;3.90;;;10.00;95.30;;;;;;6217076;23;20334;-77
2022/06/14 01:40:44;;;;;;;17.25;3.65;;;10.00;95.10;;;;;;6171037;23;20443;-77
2022/06/14 01:43:43;;;;;;;10.77;4.65;;;10.20;95.40;;;;;;6220642;23;20623;-76
2022/06/14 01:46:44;;;;;;;9.30;2.78;;;10.20;95.20;;;;;;6221032;23;20105;-76
2022/06/14 01:53:07;;;;;;;13.73;3.10;;;10.00;95.30;;;;;;6190762;23;20016;-76
2022/06/14 01:56:29;;;;;;;14.23;3.08;;;9.90;94.90;;;;;;6191081;23;20019;-76
2022/06/14 02:09:50;;;;;;;8.77;3.00;;;10.00;95.50;;;;;;6175798;23;20023;-75
2022/06/14 02:15:39;;;;;;;10.73;3.38;;;9.90;95.40;;;;;;6190456;23;20012;-76
2022/06/14 02:18:25;;;;;;;10.00;2.97;;;9.90;95.30;;;;;;6170039;23;20452;-76
2022/06/14 02:21:55;;;;;;;14.82;3.58;;;9.90;95.70;;;;;;6105304;23;20024;-75
2022/06/14 02:32:31;;;;;;;13.07;3.65;;;9.90;95.80;;;;;;6134419;23;20006;-76
2022/06/14 02:35:58;;;;;;;;;;;;;;;;;;;;;
2022/06/14 02:39:10;;;;;;;9.30;3.27;;;9.90;96.10;;;;;;6154822;23;20017;-75
2022/06/14 02:42:02;;;;;;;10.70;3.70;;;9.80;95.90;;;;;;6072303;23;20014;-76
2022/06/14 02:48:56;;;;;;;;;;;;;;;;;;;;;
2022/06/14 02:52:07;;;;;;;13.25;4.47;;;10.00;96.10;;;;;;5980895;24;20016;-76
2022/06/14 02:55:18;;;;;;;10.25;3.67;;;9.80;96.10;;;;;;5957620;24;20531;-76
2022/06/14 02:58:19;;;;;;;12.23;3.85;;;9.80;96.30;;;;;;5957207;24;20356;-76
2022/06/14 03:02:01;;;;;;;;;;;;;;;;;;;;;
2022/06/14 03:05:29;;;;;;;10.48;3.70;;;9.80;95.90;;;;;;5906044;24;20021;-76
2022/06/14 03:08:56;;;;;;;11.30;3.60;;;9.70;96.10;;;;;;5911061;23;20016;-77
2022/06/14 03:12:35;;;;;;;13.65;4.10;;;9.70;96.00;;;;;;6040008;23;20059;-75
2022/06/14 03:19:18;;;;;;;9.15;3.80;;;9.60;96.10;;;;;;6082242;23;20096;-77
2022/06/14 03:22:40;;;;;;;;;;;;;;;;;;;;;
2022/06/14 03:26:08;;;;;;;12.30;3.78;;;9.70;96.30;;;;;;6216076;23;20035;-76
2022/06/14 03:36:33;;;;;;;11.48;4.10;;;9.60;96.50;;;;;;6193964;23;20039;-77
2022/06/14 03:44:13;;;;;;;17.42;5.28;;;9.70;96.20;;;;;;6032801;23;20042;-77
2022/06/14 03:47:47;;;;;;;11.13;4.50;;;9.60;96.50;;;;;;6024842;23;20025;-76
2022/06/14 03:54:52;;;;;;;10.85;4.32;;;9.70;96.40;;;;;;6129481;23;20019;-76
2022/06/14 03:58:05;;;;;;;10.13;4.60;;;9.60;96.80;;;;;;6222107;23;20023;-77
2022/06/14 04:01:44;;;;;;;13.75;4.32;;;9.70;96.70;;;;;;6215840;23;20046;-77
2022/06/14 04:05:10;;;;;;;16.58;4.93;;;9.60;96.60;;;;;;6026001;23;20022;-77
2022/06/14 04:16:40;;;;;;;12.48;5.07;;;10.00;97.20;;;;;;5957434;23;20404;-76
2022/06/14 04:20:10;;;;;;;13.35;4.75;;;10.20;97.50;;;;;;6020722;23;20018;-77
2022/06/14 04:30:55;;;;;;;;;;;;;;;;;;;;;
2022/06/14 04:38:26;;;;;;;;;;;;;;;;;;;;;
2022/06/14 04:42:13;;;;;;;9.52;4.70;;;11.30;96.40;;;;;;5986015;23;20360;-77
2022/06/14 04:45:45;;;;;;;;;;;;;;;;;;;;;
2022/06/14 04:53:33;;;;;;;;;;;;;;;;;;;;;
2022/06/14 04:56:49;;;;;;;15.20;5.05;;;12.20;95.10;;;;;;5924466;24;20028;-77
